Terminal Aerodrome Forecast
Issued by NWS Charleston, WV

Current Version | Previous Version | Text Only | Print | Product List | Glossary Off
Versions: 1 2 3 4 5 6 7 8 9 10 11 12 13 14 15 16 17 18 19 20 21

000
FTUS41 KRLX 251735
TAFBKW
TAF
KBKW 251735Z 2518/2618 31007KT P6SM SCT250
     FM252100 32007KT P6SM FEW050
     FM260100 VRB03KT P6SM SCT250
     FM261300 34004KT P6SM SKC
     FM261500 33010G17KT P6SM SCT050=

USA.gov is the U.S. government's official web portal to all federal, state and local government web resources and services.